createdAt,value
2023-03-06T00:00:54.205Z,100.00
2023-03-06T00:03:22.449Z,100.00
2023-03-06T00:05:49.612Z,100.00
2023-03-06T00:08:16.451Z,100.00
2023-03-06T00:10:43.331Z,100.00
2023-03-06T00:13:14.220Z,100.00
2023-03-06T00:15:41.596Z,100.00
2023-03-06T00:18:08.807Z,100.00
2023-03-06T00:20:36.845Z,100.00
2023-03-06T00:23:04.406Z,100.00
2023-03-06T00:25:31.148Z,100.00
2023-03-06T00:27:57.939Z,100.00
2023-03-06T00:30:25.462Z,100.00
2023-03-06T00:32:53.355Z,100.00
2023-03-06T00:35:20.732Z,100.00
2023-03-06T00:37:47.540Z,100.00
2023-03-06T00:40:17.129Z,100.00
2023-03-06T00:42:44.485Z,100.00
2023-03-06T00:45:11.946Z,100.00
2023-03-06T00:47:38.973Z,100.00
2023-03-06T00:50:06.132Z,100.00
2023-03-06T00:52:33.034Z,100.00
2023-03-06T00:54:59.885Z,100.00
2023-03-06T00:57:26.633Z,100.00
2023-03-06T00:59:53.362Z,100.00
2023-03-06T01:02:20.191Z,100.00
2023-03-06T01:04:46.939Z,100.00
2023-03-06T01:07:13.703Z,100.00
2023-03-06T01:09:40.433Z,100.00
2023-03-06T01:12:07.586Z,100.00
2023-03-06T01:14:34.555Z,100.00
2023-03-06T01:17:01.298Z,100.00
2023-03-06T01:19:28.100Z,100.00
2023-03-06T01:21:54.953Z,100.00
2023-03-06T01:24:23.987Z,100.00
2023-03-06T01:26:50.747Z,100.00
2023-03-06T01:29:17.617Z,100.00
2023-03-06T01:31:44.459Z,100.00
2023-03-06T01:34:11.258Z,100.00
2023-03-06T01:36:38.040Z,100.00
2023-03-06T01:39:04.934Z,100.00
2023-03-06T01:41:32.763Z,100.00
2023-03-06T01:43:59.794Z,100.00
2023-03-06T01:46:30.158Z,100.00
2023-03-06T01:49:08.411Z,100.00
2023-03-06T01:51:39.703Z,100.00
2023-03-06T01:54:14.988Z,100.00
2023-03-06T01:56:46.380Z,100.00
2023-03-06T01:59:13.567Z,100.00
2023-03-06T02:01:41.651Z,100.00
2023-03-06T02:04:09.959Z,100.00
2023-03-06T02:06:39.695Z,100.00
2023-03-06T02:09:07.086Z,100.00
2023-03-06T02:11:33.904Z,100.00
2023-03-06T02:14:01.323Z,100.00
2023-03-06T02:16:31.167Z,100.00
2023-03-06T02:19:00.625Z,100.00
2023-03-06T02:21:33.027Z,100.00
2023-03-06T02:24:29.517Z,100.00
2023-03-06T02:26:57.862Z,100.00
2023-03-06T02:29:27.649Z,100.00
2023-03-06T02:31:54.554Z,100.00
2023-03-06T02:34:21.267Z,100.00
2023-03-06T02:36:52.645Z,100.00
2023-03-06T02:39:25.306Z,100.00
2023-03-06T02:41:52.171Z,100.00
2023-03-06T02:44:19.165Z,100.00
2023-03-06T02:46:45.919Z,100.00
2023-03-06T02:49:12.644Z,100.00
2023-03-06T02:51:39.437Z,100.00
2023-03-06T02:54:06.447Z,100.00
2023-03-06T02:56:33.208Z,100.00
2023-03-06T02:58:59.950Z,100.00
2023-03-06T03:01:26.773Z,100.00
2023-03-06T03:03:53.600Z,100.00
2023-03-06T03:06:20.412Z,100.00
2023-03-06T03:08:47.198Z,100.00
2023-03-06T03:11:14.140Z,100.00
2023-03-06T03:13:40.856Z,100.00
2023-03-06T03:16:09.776Z,100.00
2023-03-06T03:18:36.611Z,100.00
2023-03-06T03:21:07.860Z,100.00
2023-03-06T03:23:34.687Z,100.00
2023-03-06T03:26:13.991Z,100.00
2023-03-06T03:28:40.724Z,100.00
2023-03-06T03:31:10.081Z,100.00
2023-03-06T03:33:37.314Z,100.00
2023-03-06T03:36:06.045Z,100.00
2023-03-06T03:38:34.097Z,100.00
2023-03-06T03:41:02.113Z,100.00
2023-03-06T03:43:28.907Z,100.00
2023-03-06T03:45:55.652Z,100.00
2023-03-06T03:48:22.469Z,100.00
2023-03-06T03:50:49.353Z,100.00
2023-03-06T03:53:16.093Z,100.00
2023-03-06T03:55:42.944Z,100.00
2023-03-06T03:58:09.739Z,100.00
2023-03-06T04:00:36.463Z,100.00
2023-03-06T04:03:03.349Z,100.00
2023-03-06T04:05:30.187Z,100.00
2023-03-06T04:07:56.915Z,100.00
2023-03-06T04:10:23.670Z,100.00
2023-03-06T04:12:50.446Z,100.00
2023-03-06T04:15:17.235Z,100.00
2023-03-06T04:17:43.967Z,100.00
2023-03-06T04:20:11.412Z,100.00
2023-03-06T04:22:38.164Z,100.00
2023-03-06T04:25:05.335Z,100.00
2023-03-06T04:27:32.183Z,100.00
2023-03-06T04:30:01.553Z,100.00
2023-03-06T04:32:31.330Z,100.00
2023-03-06T04:34:58.187Z,100.00
2023-03-06T04:37:27.029Z,100.00
2023-03-06T04:39:53.809Z,100.00
2023-03-06T04:42:20.588Z,100.00
2023-03-06T04:44:47.388Z,100.00
2023-03-06T04:47:14.338Z,100.00
2023-03-06T04:49:41.162Z,100.00
2023-03-06T04:52:08.344Z,100.00
2023-03-06T04:54:35.179Z,100.00
2023-03-06T04:57:02.017Z,100.00
2023-03-06T04:59:28.749Z,100.00
2023-03-06T05:01:55.759Z,100.00
2023-03-06T05:04:22.679Z,100.00
2023-03-06T05:06:49.632Z,100.00
2023-03-06T05:09:16.822Z,100.00
2023-03-06T05:11:43.534Z,100.00
2023-03-06T05:14:10.326Z,100.00
2023-03-06T05:16:37.139Z,100.00
2023-03-06T05:19:04.018Z,100.00
2023-03-06T05:21:30.768Z,100.00
2023-03-06T05:23:57.603Z,100.00
2023-03-06T05:26:24.401Z,100.00
2023-03-06T05:28:51.208Z,100.00
2023-03-06T05:31:18.126Z,100.00
2023-03-06T05:33:44.959Z,100.00
2023-03-06T05:36:11.807Z,100.00
2023-03-06T05:38:38.694Z,100.00
2023-03-06T05:41:05.700Z,100.00
2023-03-06T05:43:32.535Z,100.00
2023-03-06T05:46:04.117Z,100.00
2023-03-06T05:48:31.115Z,100.00
2023-03-06T05:50:59.495Z,100.00
2023-03-06T05:53:26.908Z,100.00
2023-03-06T05:56:11.891Z,100.00
2023-03-06T05:58:38.911Z,100.00
2023-03-06T06:01:18.016Z,100.00
2023-03-06T06:03:45.001Z,100.00
2023-03-06T06:06:13.873Z,100.00
2023-03-06T06:08:41.354Z,100.00
2023-03-06T06:11:10.576Z,100.00
2023-03-06T06:13:38.558Z,100.00
2023-03-06T06:16:15.897Z,100.00
2023-03-06T06:18:43.592Z,100.00
2023-03-06T06:21:13.167Z,100.00
2023-03-06T06:23:40.148Z,100.00
2023-03-06T06:26:08.850Z,100.00
2023-03-06T06:28:36.226Z,100.00
2023-03-06T06:31:09.696Z,100.00
2023-03-06T06:33:36.581Z,100.00
2023-03-06T06:36:03.538Z,100.00
2023-03-06T06:38:30.282Z,100.00
2023-03-06T06:41:30.687Z,100.00
2023-03-06T06:43:43.807Z,99.94
2023-03-06T06:46:47.093Z,99.88
2023-03-06T06:48:57.318Z,100.00
2023-03-06T06:51:24.107Z,99.76
2023-03-06T06:53:54.066Z,99.48
2023-03-06T06:56:20.821Z,98.59
2023-03-06T06:58:49.588Z,98.74
2023-03-06T07:01:16.601Z,100.00
2023-03-06T07:03:43.460Z,99.50
2023-03-06T07:06:10.593Z,98.95
2023-03-06T07:08:37.631Z,97.93
2023-03-06T07:11:14.090Z,96.80
2023-03-06T07:13:40.925Z,95.17
2023-03-06T07:16:08.011Z,95.34
2023-03-06T07:18:36.576Z,95.87
2023-03-06T07:21:03.938Z,95.85
2023-03-06T07:23:31.211Z,96.52
2023-03-06T07:25:58.472Z,94.38
2023-03-06T07:28:25.221Z,94.50
2023-03-06T07:30:52.039Z,94.68
2023-03-06T07:33:18.814Z,96.53
2023-03-06T07:35:45.642Z,99.60
2023-03-06T07:38:12.576Z,96.34
2023-03-06T07:40:39.391Z,95.68
2023-03-06T07:43:18.614Z,94.76
2023-03-06T07:45:47.061Z,94.93
2023-03-06T07:48:14.838Z,91.37
2023-03-06T07:50:42.052Z,91.52
2023-03-06T07:53:10.784Z,91.25
2023-03-06T07:55:40.506Z,92.30
2023-03-06T07:58:07.258Z,92.12
2023-03-06T08:00:34.385Z,90.38
2023-03-06T08:03:01.364Z,90.38
2023-03-06T08:05:28.168Z,89.62
2023-03-06T08:07:54.919Z,88.79
2023-03-06T08:10:21.707Z,87.29
2023-03-06T08:12:48.475Z,88.88
2023-03-06T08:15:15.323Z,91.69
2023-03-06T08:17:42.103Z,87.76
2023-03-06T08:20:10.448Z,85.58
2023-03-06T08:22:37.830Z,85.61
2023-03-06T08:25:06.046Z,86.61
2023-03-06T08:27:34.289Z,87.70
2023-03-06T08:30:01.600Z,88.18
2023-03-06T08:32:31.212Z,86.18
2023-03-06T08:34:57.995Z,86.32
2023-03-06T08:37:24.934Z,86.27
2023-03-06T08:39:51.784Z,86.29
2023-03-06T08:42:18.617Z,84.66
2023-03-06T08:44:45.497Z,84.91
2023-03-06T08:47:12.357Z,85.89
2023-03-06T08:49:39.788Z,84.75
2023-03-06T08:52:08.133Z,85.31
2023-03-06T08:54:36.434Z,84.91
2023-03-06T08:57:03.602Z,85.44
2023-03-06T08:59:30.361Z,88.16
2023-03-06T09:01:57.231Z,86.57
2023-03-06T09:04:24.102Z,88.28
2023-03-06T09:06:50.923Z,83.39
2023-03-06T09:09:17.778Z,82.98
2023-03-06T09:11:44.720Z,81.00
2023-03-06T09:14:11.584Z,82.49
2023-03-06T09:16:38.645Z,82.74
2023-03-06T09:19:05.550Z,82.69
2023-03-06T09:21:32.344Z,84.72
2023-03-06T09:23:59.464Z,83.79
2023-03-06T09:26:39.568Z,82.62
2023-03-06T09:29:12.558Z,83.32
2023-03-06T09:31:39.350Z,83.47
2023-03-06T09:34:06.234Z,83.87
2023-03-06T09:36:42.800Z,84.66
2023-03-06T09:39:16.237Z,84.63
2023-03-06T09:41:43.174Z,83.47
2023-03-06T09:44:20.215Z,84.71
2023-03-06T09:47:08.404Z,84.57
2023-03-06T09:49:44.298Z,83.24
2023-03-06T09:52:31.525Z,82.69
2023-03-06T09:55:24.126Z,83.32
2023-03-06T09:58:19.854Z,84.51
2023-03-06T10:00:58.856Z,82.29
2023-03-06T10:03:36.914Z,81.47
2023-03-06T10:06:03.762Z,81.89
2023-03-06T10:09:02.782Z,83.29
2023-03-06T10:11:42.695Z,81.83
2023-03-06T10:14:44.041Z,79.88
2023-03-06T10:17:22.378Z,80.96
2023-03-06T10:19:49.936Z,81.30
2023-03-06T10:22:37.087Z,81.56
2023-03-06T10:25:22.101Z,81.56
2023-03-06T10:28:02.078Z,82.87
2023-03-06T10:30:56.942Z,82.56
2023-03-06T10:33:44.947Z,82.22
2023-03-06T10:36:19.314Z,81.73
2023-03-06T10:38:49.894Z,81.64
2023-03-06T10:41:21.448Z,79.73
2023-03-06T10:44:09.426Z,79.18
2023-03-06T10:46:44.306Z,79.07
2023-03-06T10:49:23.562Z,79.36
2023-03-06T10:52:09.694Z,78.08
2023-03-06T10:54:39.446Z,78.16
2023-03-06T10:57:28.619Z,82.21
2023-03-06T11:00:22.831Z,84.65
2023-03-06T11:03:15.956Z,85.85
2023-03-06T11:06:10.837Z,87.55
2023-03-06T11:08:40.251Z,87.17
2023-03-06T11:11:11.964Z,85.69
2023-03-06T11:13:40.630Z,85.12
2023-03-06T11:16:13.622Z,83.56
2023-03-06T11:18:42.817Z,83.94
2023-03-06T11:21:36.359Z,82.08
2023-03-06T11:24:11.952Z,80.48
2023-03-06T11:26:45.870Z,79.96
2023-03-06T11:29:36.330Z,80.00
2023-03-06T11:32:57.682Z,78.47
2023-03-06T11:35:35.271Z,76.04
2023-03-06T11:38:02.062Z,75.56
2023-03-06T11:40:44.941Z,72.18
2023-03-06T11:43:42.388Z,72.96
2023-03-06T11:46:23.684Z,69.73
2023-03-06T11:49:13.802Z,69.92
2023-03-06T11:51:47.707Z,70.11
2023-03-06T11:54:14.572Z,66.86
2023-03-06T11:56:57.647Z,67.49
2023-03-06T12:00:08.680Z,69.21
2023-03-06T12:02:58.981Z,69.86
2023-03-06T12:06:02.111Z,71.10
2023-03-06T12:08:47.053Z,73.85
2023-03-06T12:11:30.703Z,75.05
2023-03-06T12:14:13.452Z,74.95
2023-03-06T12:16:46.258Z,74.44
2023-03-06T12:19:31.624Z,73.98
2023-03-06T12:22:13.918Z,75.17
2023-03-06T12:24:59.403Z,77.44
2023-03-06T12:27:40.821Z,87.03
2023-03-06T12:30:36.261Z,93.29
2023-03-06T12:33:24.694Z,95.00
2023-03-06T12:36:29.046Z,98.15
2023-03-06T12:39:08.488Z,99.62
2023-03-06T12:41:44.115Z,97.68
2023-03-06T12:44:35.612Z,96.95
2023-03-06T12:47:08.210Z,96.89
2023-03-06T12:49:38.808Z,95.51
2023-03-06T12:52:08.258Z,94.94
2023-03-06T12:54:39.028Z,93.83
2023-03-06T12:57:08.596Z,93.64
2023-03-06T12:59:49.347Z,90.99
2023-03-06T13:02:40.368Z,90.43
2023-03-06T13:05:25.603Z,92.54
2023-03-06T13:08:09.975Z,95.48
2023-03-06T13:10:39.970Z,98.11
2023-03-06T13:13:32.337Z,99.12
2023-03-06T13:16:11.785Z,98.87
2023-03-06T13:18:38.582Z,96.30
2023-03-06T13:21:05.517Z,94.48
2023-03-06T13:23:32.354Z,89.35
2023-03-06T13:26:01.029Z,88.25
2023-03-06T13:28:50.092Z,83.99
2023-03-06T13:31:54.970Z,82.13
2023-03-06T13:34:37.330Z,81.25
2023-03-06T13:37:25.100Z,81.35
2023-03-06T13:40:01.626Z,81.71
2023-03-06T13:42:35.271Z,82.38
2023-03-06T13:45:15.751Z,80.96
2023-03-06T13:48:21.432Z,81.25
2023-03-06T13:52:12.853Z,81.67
2023-03-06T13:55:00.942Z,82.66
2023-03-06T13:57:38.761Z,81.89
2023-03-06T14:00:17.909Z,81.49
2023-03-06T14:02:54.827Z,82.19
2023-03-06T14:05:22.282Z,82.26
2023-03-06T14:08:06.512Z,82.72
2023-03-06T14:10:35.740Z,82.29
2023-03-06T14:13:30.057Z,82.34
2023-03-06T14:15:59.133Z,82.30
2023-03-06T14:18:38.483Z,80.67
2023-03-06T14:21:13.469Z,78.85
2023-03-06T14:23:46.446Z,79.93
2023-03-06T14:26:15.389Z,80.91
2023-03-06T14:28:44.273Z,82.10
2023-03-06T14:31:18.093Z,83.58
2023-03-06T14:33:59.879Z,84.82
2023-03-06T14:36:32.102Z,84.62
2023-03-06T14:39:04.288Z,84.60
2023-03-06T14:41:33.735Z,85.53
2023-03-06T14:44:19.654Z,85.16
2023-03-06T14:46:50.763Z,83.15
2023-03-06T14:49:20.637Z,84.02
2023-03-06T14:51:54.051Z,84.61
2023-03-06T14:54:26.181Z,84.86
2023-03-06T14:56:59.168Z,84.79
2023-03-06T14:59:29.454Z,85.47
2023-03-06T15:02:03.804Z,86.18
2023-03-06T15:05:35.404Z,86.29
2023-03-06T15:08:06.976Z,87.05
2023-03-06T15:10:38.756Z,88.19
2023-03-06T15:13:31.562Z,88.05
2023-03-06T15:16:08.040Z,88.98
2023-03-06T15:18:38.889Z,90.44
2023-03-06T15:21:27.478Z,90.73
2023-03-06T15:23:56.841Z,90.50
2023-03-06T15:26:31.755Z,91.31
2023-03-06T15:29:18.659Z,91.42
2023-03-06T15:31:46.186Z,91.61
2023-03-06T15:34:12.994Z,91.32
2023-03-06T15:36:41.248Z,91.57
2023-03-06T15:39:30.286Z,91.80
2023-03-06T15:42:07.667Z,92.49
2023-03-06T15:44:34.992Z,92.97
2023-03-06T15:47:09.510Z,93.16
2023-03-06T15:49:38.179Z,92.82
2023-03-06T15:52:06.500Z,92.94
2023-03-06T15:54:33.382Z,93.15
2023-03-06T15:57:00.927Z,93.04
2023-03-06T15:59:33.309Z,93.87
2023-03-06T16:02:03.987Z,94.33
2023-03-06T16:04:30.957Z,94.44
2023-03-06T16:06:57.701Z,95.21
2023-03-06T16:09:24.561Z,95.11
2023-03-06T16:11:51.433Z,95.19
2023-03-06T16:14:21.470Z,95.14
2023-03-06T16:16:49.354Z,95.15
2023-03-06T16:19:29.249Z,95.19
2023-03-06T16:21:56.924Z,94.85
2023-03-06T16:24:26.107Z,95.03
2023-03-06T16:26:54.979Z,94.53
2023-03-06T16:29:26.685Z,93.74
2023-03-06T16:31:55.309Z,94.17
2023-03-06T16:34:22.606Z,94.02
2023-03-06T16:36:50.249Z,94.43
2023-03-06T16:39:19.491Z,94.85
2023-03-06T16:41:46.628Z,95.08
2023-03-06T16:44:13.550Z,94.87
2023-03-06T16:46:45.913Z,94.73
2023-03-06T16:49:24.828Z,95.50
2023-03-06T16:51:52.454Z,95.93
2023-03-06T16:54:19.842Z,95.98
2023-03-06T16:56:46.849Z,95.44
2023-03-06T16:59:13.673Z,95.59
2023-03-06T17:01:43.275Z,95.44
2023-03-06T17:04:10.801Z,95.37
2023-03-06T17:06:38.610Z,95.28
2023-03-06T17:09:05.667Z,95.26
2023-03-06T17:11:32.633Z,95.08
2023-03-06T17:13:59.636Z,95.31
2023-03-06T17:16:26.646Z,95.57
2023-03-06T17:18:55.126Z,95.64
2023-03-06T17:21:22.043Z,95.96
2023-03-06T17:23:50.802Z,96.22
2023-03-06T17:26:19.116Z,96.28
2023-03-06T17:28:47.080Z,96.51
2023-03-06T17:31:27.629Z,96.49
2023-03-06T17:33:59.133Z,96.53
2023-03-06T17:36:27.931Z,95.65
2023-03-06T17:38:58.952Z,95.98
2023-03-06T17:41:26.104Z,96.19
2023-03-06T17:43:55.741Z,96.58
2023-03-06T17:46:22.591Z,97.23
2023-03-06T17:48:49.489Z,97.55
2023-03-06T17:51:16.397Z,98.01
2023-03-06T17:53:43.209Z,98.63
2023-03-06T17:56:12.802Z,98.28
2023-03-06T17:58:39.545Z,98.37
2023-03-06T18:01:32.749Z,98.69
2023-03-06T18:03:59.649Z,99.19
2023-03-06T18:06:30.105Z,99.23
2023-03-06T18:08:56.989Z,99.31
2023-03-06T18:11:24.172Z,99.63
2023-03-06T18:13:51.303Z,99.75
2023-03-06T18:16:21.126Z,99.67
2023-03-06T18:18:51.013Z,99.61
2023-03-06T18:21:17.866Z,99.48
2023-03-06T18:23:44.826Z,99.50
2023-03-06T18:26:15.655Z,99.22
2023-03-06T18:28:45.056Z,99.34
2023-03-06T18:31:16.027Z,98.64
2023-03-06T18:33:43.099Z,98.70
2023-03-06T18:36:09.984Z,98.94
2023-03-06T18:38:37.966Z,99.25
2023-03-06T18:41:09.903Z,99.28
2023-03-06T18:43:38.404Z,99.82
2023-03-06T18:46:06.183Z,99.94
2023-03-06T18:48:33.166Z,100.00
2023-03-06T18:51:05.075Z,99.93
2023-03-06T18:53:31.947Z,99.89
2023-03-06T18:55:58.848Z,100.00
2023-03-06T18:58:25.767Z,100.00
2023-03-06T19:00:58.316Z,100.00
2023-03-06T19:03:26.029Z,100.00
2023-03-06T19:05:52.990Z,100.00
2023-03-06T19:08:19.875Z,100.00
2023-03-06T19:10:47.307Z,100.00
2023-03-06T19:13:14.816Z,100.00
2023-03-06T19:15:49.188Z,100.00
2023-03-06T19:18:17.993Z,100.00
2023-03-06T19:20:45.366Z,99.60
2023-03-06T19:23:12.195Z,99.59
2023-03-06T19:25:39.258Z,99.02
2023-03-06T19:28:06.268Z,98.82
2023-03-06T19:30:33.045Z,98.58
2023-03-06T19:33:00.044Z,98.36
2023-03-06T19:35:27.216Z,98.09
2023-03-06T19:37:54.051Z,97.92
2023-03-06T19:40:21.008Z,97.62
2023-03-06T19:42:47.938Z,97.64
2023-03-06T19:45:14.745Z,97.42
2023-03-06T19:47:41.520Z,97.51
2023-03-06T19:50:09.464Z,97.14
2023-03-06T19:52:38.374Z,96.76
2023-03-06T19:55:06.064Z,96.45
2023-03-06T19:57:32.880Z,96.27
2023-03-06T19:59:59.621Z,95.88
2023-03-06T20:02:27.270Z,95.44
2023-03-06T20:04:55.070Z,95.02
2023-03-06T20:07:21.968Z,94.96
2023-03-06T20:09:48.730Z,94.56
2023-03-06T20:12:16.330Z,94.14
2023-03-06T20:14:45.823Z,93.50
2023-03-06T20:17:12.566Z,93.33
2023-03-06T20:19:39.487Z,93.16
2023-03-06T20:22:06.450Z,92.57
2023-03-06T20:24:33.202Z,91.85
2023-03-06T20:26:59.960Z,91.81
2023-03-06T20:29:28.419Z,91.48
2023-03-06T20:31:57.291Z,91.16
2023-03-06T20:34:25.489Z,90.93
2023-03-06T20:36:52.858Z,90.78
2023-03-06T20:39:24.266Z,90.42
2023-03-06T20:41:51.007Z,90.40
2023-03-06T20:44:18.949Z,90.15
2023-03-06T20:46:46.152Z,90.25
2023-03-06T20:49:13.520Z,90.48
2023-03-06T20:51:40.871Z,89.95
2023-03-06T20:54:11.061Z,89.76
2023-03-06T20:56:39.652Z,89.89
2023-03-06T20:59:08.421Z,89.66
2023-03-06T21:01:38.426Z,89.37
2023-03-06T21:04:05.387Z,89.38
2023-03-06T21:06:33.095Z,88.94
2023-03-06T21:09:01.104Z,88.92
2023-03-06T21:11:28.868Z,88.93
2023-03-06T21:13:56.076Z,89.17
2023-03-06T21:16:25.840Z,88.71
2023-03-06T21:18:54.811Z,88.40
2023-03-06T21:21:25.047Z,88.67
2023-03-06T21:23:52.311Z,88.66
2023-03-06T21:26:21.484Z,89.09
2023-03-06T21:28:48.344Z,89.32
2023-03-06T21:31:16.963Z,89.28
2023-03-06T21:33:44.324Z,89.23
2023-03-06T21:36:11.231Z,88.57
2023-03-06T21:38:38.384Z,89.39
2023-03-06T21:41:10.818Z,89.77
2023-03-06T21:43:37.881Z,89.51
2023-03-06T21:46:05.046Z,89.92
2023-03-06T21:48:32.420Z,89.71
2023-03-06T21:51:13.429Z,89.94
2023-03-06T21:53:42.652Z,89.99
2023-03-06T21:56:10.748Z,89.75
2023-03-06T21:58:37.745Z,90.03
2023-03-06T22:01:13.612Z,89.68
2023-03-06T22:03:40.522Z,89.76
2023-03-06T22:06:10.374Z,89.82
2023-03-06T22:08:37.114Z,89.91
2023-03-06T22:11:12.000Z,89.53
2023-03-06T22:13:39.748Z,89.13
2023-03-06T22:16:07.473Z,89.57
2023-03-06T22:18:35.214Z,89.30
2023-03-06T22:21:08.379Z,89.05
2023-03-06T22:23:35.234Z,88.53
2023-03-06T22:26:06.420Z,88.51
2023-03-06T22:28:33.468Z,89.06
2023-03-06T22:31:06.757Z,88.87
2023-03-06T22:33:33.623Z,88.79
2023-03-06T22:36:05.311Z,88.80
2023-03-06T22:38:32.790Z,88.58
2023-03-06T22:40:59.569Z,88.75
2023-03-06T22:43:26.402Z,88.53
2023-03-06T22:45:53.264Z,89.04
2023-03-06T22:48:20.880Z,89.14
2023-03-06T22:50:47.707Z,88.57
2023-03-06T22:53:14.559Z,88.93
2023-03-06T22:55:41.606Z,88.92
2023-03-06T22:58:08.366Z,88.70
2023-03-06T23:00:35.128Z,88.72
2023-03-06T23:03:02.196Z,88.21
2023-03-06T23:05:29.786Z,88.06
2023-03-06T23:07:56.683Z,88.13
2023-03-06T23:10:24.212Z,87.94
2023-03-06T23:12:51.023Z,87.83
2023-03-06T23:15:17.925Z,87.60
2023-03-06T23:17:44.936Z,87.44
2023-03-06T23:20:13.333Z,87.42
2023-03-06T23:22:40.213Z,87.39
2023-03-06T23:25:07.347Z,87.33
2023-03-06T23:27:36.141Z,87.34
2023-03-06T23:30:08.999Z,87.29
2023-03-06T23:32:35.885Z,87.06
2023-03-06T23:35:02.649Z,86.50
2023-03-06T23:37:31.017Z,86.50
2023-03-06T23:39:57.774Z,86.65
2023-03-06T23:42:24.929Z,86.57
2023-03-06T23:44:51.808Z,86.52
2023-03-06T23:47:20.114Z,85.90
2023-03-06T23:49:46.938Z,85.81
2023-03-06T23:52:13.744Z,85.74
2023-03-06T23:54:40.616Z,86.00
2023-03-06T23:57:07.552Z,85.74
2023-03-06T23:59:34.341Z,85.93
